Terminal Aerodrome Forecast
Issued by NWS Upton, NY

Current Version | Previous Version | Text Only | Print | Product List | Glossary On
Versions: 1 2 3 4 5 6 7 8 9 10 11 12 13 14 15 16 17 18 19 20 21 22 23 24 25
896
FTUS41 KOKX 112030 AAA
TAFEWR
TAF AMD
KEWR 112030Z 1121/1224 28021G30KT P6SM BKN060
     FM120000 29016G25KT P6SM SKC
     FM120600 27009KT P6SM SKC
     FM121600 24009KT P6SM FEW040 BKN120=

USA.gov is the U.S. government's official web portal to all federal, state and local government web resources and services.